createdAt,value
2019-02-18T00:00:58.585Z,8.60
2019-02-18T00:01:58.618Z,8.20
2019-02-18T00:02:58.528Z,8.70
2019-02-18T00:03:58.531Z,8.10
2019-02-18T00:04:58.469Z,9.10
2019-02-18T00:05:58.553Z,8.60
2019-02-18T00:06:58.415Z,8.70
2019-02-18T00:07:58.457Z,8.70
2019-02-18T00:08:58.352Z,7.90
2019-02-18T00:09:58.361Z,8.60
2019-02-18T00:10:58.301Z,8.20
2019-02-18T00:11:58.269Z,8.40
2019-02-18T00:12:58.236Z,8.40
2019-02-18T00:13:59.315Z,8.60
2019-02-18T00:14:58.172Z,9.00
2019-02-18T00:15:58.203Z,8.00
2019-02-18T00:16:59.702Z,8.50
2019-02-18T00:17:59.698Z,8.80
2019-02-18T00:18:58.168Z,8.50
2019-02-18T00:19:58.041Z,8.40
2019-02-18T00:20:58.071Z,9.30
2019-02-18T00:21:57.976Z,8.50
2019-02-18T00:22:57.983Z,8.70
2019-02-18T00:23:57.922Z,8.50
2019-02-18T00:24:58.000Z,8.30
2019-02-18T00:25:57.860Z,9.00
2019-02-18T00:26:57.907Z,8.70
2019-02-18T00:27:57.802Z,8.80
2019-02-18T00:28:57.822Z,8.60
2019-02-18T00:29:57.749Z,8.30
2019-02-18T00:30:57.735Z,9.50
2019-02-18T00:31:57.684Z,8.40
2019-02-18T00:32:57.751Z,9.20
2019-02-18T00:33:57.629Z,9.50
2019-02-18T00:34:57.664Z,9.30
2019-02-18T00:35:57.567Z,8.60
2019-02-18T00:36:57.571Z,9.60
2019-02-18T00:37:57.510Z,9.20
2019-02-18T00:38:57.584Z,8.80
2019-02-18T00:39:57.456Z,9.00
2019-02-18T00:40:57.509Z,9.00
2019-02-18T00:41:57.398Z,8.70
2019-02-18T00:42:57.407Z,9.10
2019-02-18T00:43:57.336Z,8.90
2019-02-18T00:44:57.423Z,9.40
2019-02-18T00:45:57.284Z,9.10
2019-02-18T00:46:57.345Z,8.90
2019-02-18T00:47:57.222Z,8.70
2019-02-18T00:48:57.241Z,9.30
2019-02-18T00:49:57.167Z,8.80
2019-02-18T00:50:57.155Z,9.00
2019-02-18T00:51:57.100Z,8.20
2019-02-18T00:52:57.169Z,8.40
2019-02-18T00:53:57.047Z,9.30
2019-02-18T00:54:57.083Z,8.90
2019-02-18T00:55:57.000Z,9.20
2019-02-18T00:56:56.999Z,8.90
2019-02-18T00:57:56.937Z,9.00
2019-02-18T00:58:57.012Z,9.10
2019-02-18T00:59:56.873Z,9.20
2019-02-18T01:00:56.927Z,9.10
2019-02-18T01:01:56.823Z,8.80
2019-02-18T01:02:56.827Z,8.70
2019-02-18T01:03:56.757Z,8.40
2019-02-18T01:04:56.845Z,9.50
2019-02-18T01:05:56.700Z,8.20
2019-02-18T01:06:56.758Z,8.50
2019-02-18T01:07:56.647Z,8.80
2019-02-18T01:08:56.717Z,8.90
2019-02-18T01:09:56.605Z,8.60
2019-02-18T01:10:56.577Z,8.90
2019-02-18T01:11:56.525Z,9.10
2019-02-18T01:12:56.596Z,8.90
2019-02-18T01:13:56.460Z,9.70
2019-02-18T01:14:56.521Z,8.70
2019-02-18T01:15:56.407Z,9.10
2019-02-18T01:16:56.411Z,8.90
2019-02-18T01:17:56.352Z,9.40
2019-02-18T01:18:56.431Z,9.30
2019-02-18T01:19:56.292Z,8.60
2019-02-18T01:20:56.334Z,9.60
2019-02-18T01:21:56.237Z,8.80
2019-02-18T01:22:56.248Z,9.40
2019-02-18T01:23:56.181Z,9.20
2019-02-18T01:25:17.268Z,9.00
2019-02-18T01:25:56.115Z,9.40
2019-02-18T01:26:56.101Z,9.70
2019-02-18T01:27:56.070Z,9.50
2019-02-18T01:28:56.029Z,9.30
2019-02-18T01:30:12.803Z,9.10
2019-02-18T01:30:55.968Z,9.20
2019-02-18T01:31:58.051Z,9.30
2019-02-18T01:32:55.910Z,9.60
2019-02-18T01:33:55.911Z,9.10
2019-02-18T01:34:55.856Z,9.40
2019-02-18T01:35:55.983Z,9.20
2019-02-18T01:36:55.795Z,8.80
2019-02-18T01:37:55.766Z,8.80
2019-02-18T01:38:55.730Z,8.80
2019-02-18T01:39:55.712Z,9.10
2019-02-18T01:40:55.678Z,9.20
2019-02-18T01:41:56.674Z,9.90
2019-02-18T01:42:55.618Z,9.20
2019-02-18T01:43:55.665Z,10.10
2019-02-18T01:44:55.564Z,10.20
2019-02-18T01:45:55.529Z,9.40
2019-02-18T01:46:55.503Z,9.90
2019-02-18T01:47:55.472Z,10.10
2019-02-18T01:48:55.442Z,9.90
2019-02-18T01:49:55.419Z,10.70
2019-02-18T01:50:55.409Z,9.20
2019-02-18T01:51:55.354Z,8.90
2019-02-18T01:52:55.422Z,9.50
2019-02-18T01:53:55.346Z,9.90
2019-02-18T01:54:55.343Z,9.20
2019-02-18T01:55:55.240Z,9.70
2019-02-18T01:56:55.236Z,10.00
2019-02-18T01:57:55.179Z,9.90
2019-02-18T01:58:55.268Z,9.40
2019-02-18T01:59:55.120Z,10.10
2019-02-18T02:00:55.159Z,9.80
2019-02-18T02:01:55.060Z,10.00
2019-02-18T02:02:55.052Z,9.90
2019-02-18T02:03:55.003Z,9.60
2019-02-18T02:04:55.061Z,9.30
2019-02-18T02:05:54.966Z,10.10
2019-02-18T02:06:54.969Z,9.40
2019-02-18T02:07:56.608Z,9.20
2019-02-18T02:08:54.879Z,9.00
2019-02-18T02:09:54.831Z,9.60
2019-02-18T02:10:54.897Z,9.60
2019-02-18T02:11:54.772Z,9.50
2019-02-18T02:12:54.809Z,9.30
2019-02-18T02:13:54.714Z,9.80
2019-02-18T02:14:54.717Z,8.70
2019-02-18T02:15:54.655Z,9.30
2019-02-18T02:16:54.731Z,9.80
2019-02-18T02:17:54.596Z,9.70
2019-02-18T02:18:54.645Z,9.50
2019-02-18T02:19:54.530Z,10.10
2019-02-18T02:20:54.566Z,9.90
2019-02-18T02:21:54.479Z,10.00
2019-02-18T02:22:55.490Z,10.00
2019-02-18T02:23:54.420Z,9.20
2019-02-18T02:24:54.474Z,9.50
2019-02-18T02:25:54.363Z,10.40
2019-02-18T02:26:54.402Z,10.30
2019-02-18T02:27:54.310Z,10.70
2019-02-18T02:28:54.302Z,9.90
2019-02-18T02:29:54.263Z,10.10
2019-02-18T02:30:54.314Z,10.10
2019-02-18T02:31:54.179Z,9.70
2019-02-18T02:32:54.231Z,10.60
2019-02-18T02:33:54.131Z,10.30
2019-02-18T02:34:54.161Z,10.20
2019-02-18T02:35:54.064Z,10.20
2019-02-18T02:36:54.065Z,9.70
2019-02-18T02:37:54.027Z,9.60
2019-02-18T02:38:54.086Z,10.30
2019-02-18T02:39:53.950Z,10.00
2019-02-18T02:40:53.995Z,10.10
2019-02-18T02:41:53.891Z,10.50
2019-02-18T02:42:53.911Z,9.90
2019-02-18T02:43:53.855Z,10.00
2019-02-18T02:44:53.907Z,10.00
2019-02-18T02:45:53.788Z,10.80
2019-02-18T02:46:53.827Z,9.60
2019-02-18T02:47:53.715Z,10.00
2019-02-18T02:48:53.743Z,9.90
2019-02-18T02:49:53.661Z,10.10
2019-02-18T02:50:53.654Z,9.60
2019-02-18T02:51:53.590Z,10.10
2019-02-18T02:52:53.671Z,10.40
2019-02-18T02:53:53.533Z,11.00
2019-02-18T02:54:53.559Z,10.40
2019-02-18T02:55:53.499Z,9.30
2019-02-18T02:56:53.472Z,11.20
2019-02-18T02:57:53.427Z,9.50
2019-02-18T02:58:53.484Z,10.70
2019-02-18T02:59:53.352Z,10.50
2019-02-18T03:00:53.397Z,10.00
2019-02-18T03:01:53.301Z,10.40
2019-02-18T03:02:53.309Z,9.90
2019-02-18T03:03:53.246Z,10.10
2019-02-18T03:04:53.248Z,10.00
2019-02-18T03:05:53.194Z,9.50
2019-02-18T03:06:53.234Z,10.60
2019-02-18T03:07:53.143Z,10.50
2019-02-18T03:08:53.144Z,10.40
2019-02-18T03:09:53.062Z,10.30
2019-02-18T03:10:53.069Z,10.10
2019-02-18T03:11:53.008Z,10.00
2019-02-18T03:12:52.987Z,11.00
2019-02-18T03:13:52.945Z,10.20
2019-02-18T03:14:52.989Z,10.40
2019-02-18T03:15:52.900Z,10.70
2019-02-18T03:16:52.896Z,10.10
2019-02-18T03:17:52.836Z,10.80
2019-02-18T03:18:52.920Z,10.70
2019-02-18T03:19:52.770Z,10.60
2019-02-18T03:20:52.811Z,10.40
2019-02-18T03:21:52.721Z,10.20
2019-02-18T03:22:52.753Z,10.40
2019-02-18T03:23:52.663Z,10.20
2019-02-18T03:24:52.744Z,10.40
2019-02-18T03:25:52.595Z,10.40
2019-02-18T03:26:52.642Z,9.80
2019-02-18T03:27:52.528Z,10.60
2019-02-18T03:28:52.513Z,11.20
2019-02-18T03:29:52.479Z,10.10
2019-02-18T03:30:52.478Z,10.30
2019-02-18T03:31:52.423Z,10.30
2019-02-18T03:32:52.478Z,10.10
2019-02-18T03:33:52.369Z,10.90
2019-02-18T03:34:52.386Z,10.10
2019-02-18T03:35:52.303Z,10.70
2019-02-18T03:36:52.300Z,10.00
2019-02-18T03:37:52.243Z,10.30
2019-02-18T03:38:52.325Z,10.30
2019-02-18T03:39:52.200Z,10.60
2019-02-18T03:41:02.425Z,11.50
2019-02-18T03:41:52.125Z,10.40
2019-02-18T03:42:52.146Z,10.40
2019-02-18T03:43:52.064Z,9.90
2019-02-18T03:44:52.091Z,10.00
2019-02-18T03:45:52.018Z,10.20
2019-02-18T03:46:52.082Z,10.30
2019-02-18T03:47:51.958Z,10.40
2019-02-18T03:48:51.998Z,10.50
2019-02-18T03:49:53.750Z,10.50
2019-02-18T03:51:06.831Z,10.70
2019-02-18T03:51:51.839Z,10.70
2019-02-18T03:52:51.917Z,11.10
2019-02-18T03:53:51.780Z,11.00
2019-02-18T03:54:51.750Z,11.00
2019-02-18T03:56:00.372Z,10.00
2019-02-18T03:56:51.682Z,10.60
2019-02-18T03:57:59.295Z,10.30
2019-02-18T03:58:51.623Z,10.40
2019-02-18T03:59:51.637Z,11.10
2019-02-18T04:00:51.571Z,10.50
2019-02-18T04:02:51.506Z,10.30
2019-02-18T04:04:00.369Z,9.80
2019-02-18T04:04:51.442Z,10.30
2019-02-18T04:06:14.508Z,10.30
2019-02-18T04:06:51.381Z,10.20
2019-02-18T04:08:00.294Z,10.50
2019-02-18T04:08:51.385Z,10.00
2019-02-18T04:10:07.274Z,10.70
2019-02-18T04:10:51.287Z,9.70
2019-02-18T04:11:52.333Z,9.90
2019-02-18T04:12:51.205Z,9.80
2019-02-18T04:13:52.254Z,10.00
2019-02-18T04:14:51.172Z,9.40
2019-02-18T04:15:51.204Z,9.80
2019-02-18T04:16:51.087Z,10.30
2019-02-18T04:17:51.068Z,11.10
2019-02-18T04:18:51.036Z,10.30
2019-02-18T04:19:51.010Z,10.10
2019-02-18T04:20:50.973Z,10.90
2019-02-18T04:21:50.940Z,9.60
2019-02-18T04:22:50.917Z,10.30
2019-02-18T04:23:50.876Z,10.00
2019-02-18T04:24:50.856Z,10.10
2019-02-18T04:25:50.827Z,9.70
2019-02-18T04:26:50.794Z,10.30
2019-02-18T04:27:50.769Z,9.70
2019-02-18T04:28:50.745Z,9.90
2019-02-18T04:29:50.709Z,10.30
2019-02-18T04:30:50.727Z,10.10
2019-02-18T04:31:50.647Z,10.80
2019-02-18T04:32:50.613Z,10.50
2019-02-18T04:33:50.600Z,10.20
2019-02-18T04:34:50.558Z,10.20
2019-02-18T04:35:50.528Z,10.60
2019-02-18T04:36:50.499Z,11.00
2019-02-18T04:37:50.466Z,11.20
2019-02-18T04:38:54.075Z,10.80
2019-02-18T04:39:50.407Z,11.10
2019-02-18T04:40:50.378Z,10.80
2019-02-18T04:41:50.364Z,10.60
2019-02-18T04:42:50.317Z,11.10
2019-02-18T04:43:50.281Z,11.10
2019-02-18T04:44:50.263Z,10.30
2019-02-18T04:45:50.232Z,11.00
2019-02-18T04:46:50.204Z,10.50
2019-02-18T04:47:50.168Z,10.10
2019-02-18T04:48:50.146Z,10.30
2019-02-18T04:49:50.192Z,11.20
2019-02-18T04:50:50.084Z,11.00
2019-02-18T04:51:50.045Z,11.10
2019-02-18T04:52:50.027Z,11.80
2019-02-18T04:53:49.996Z,11.30
2019-02-18T04:54:49.960Z,11.30
2019-02-18T04:55:49.958Z,11.60
2019-02-18T04:56:49.905Z,10.50
2019-02-18T04:57:49.889Z,11.00
2019-02-18T04:58:49.961Z,10.80
2019-02-18T04:59:49.814Z,10.00
2019-02-18T05:00:49.783Z,10.70
2019-02-18T05:01:49.760Z,10.30
2019-02-18T05:02:49.724Z,10.90
2019-02-18T05:03:49.698Z,11.00
2019-02-18T05:04:49.670Z,10.40
2019-02-18T05:05:49.635Z,11.10
2019-02-18T05:06:49.606Z,11.00
2019-02-18T05:07:49.600Z,10.40
2019-02-18T05:08:49.558Z,10.80
2019-02-18T05:09:49.519Z,11.30
2019-02-18T05:10:49.488Z,10.50
2019-02-18T05:11:49.464Z,10.20
2019-02-18T05:12:49.422Z,10.80
2019-02-18T05:13:49.401Z,10.40
2019-02-18T05:14:49.372Z,10.80
2019-02-18T05:15:49.338Z,11.10
2019-02-18T05:16:49.308Z,10.60
2019-02-18T05:17:49.274Z,10.20
2019-02-18T05:18:49.250Z,10.70
2019-02-18T05:19:49.223Z,10.90
2019-02-18T05:20:49.189Z,10.80
2019-02-18T05:21:49.164Z,10.30
2019-02-18T05:22:49.130Z,10.60
2019-02-18T05:23:49.098Z,10.60
2019-02-18T05:24:49.070Z,11.10
2019-02-18T05:25:49.039Z,11.50
2019-02-18T05:26:49.011Z,11.10
2019-02-18T05:27:48.991Z,11.20
2019-02-18T05:28:49.065Z,11.80
2019-02-18T05:29:48.917Z,11.70
2019-02-18T05:30:48.958Z,11.60
2019-02-18T05:31:48.979Z,11.40
2019-02-18T05:32:48.868Z,11.00
2019-02-18T05:33:48.804Z,11.10
2019-02-18T05:34:48.882Z,11.50
2019-02-18T05:35:50.275Z,12.90
2019-02-18T05:36:48.715Z,12.40
2019-02-18T05:37:48.779Z,11.60
2019-02-18T05:38:48.652Z,12.00
2019-02-18T05:39:48.625Z,11.60
2019-02-18T05:40:48.600Z,11.90
2019-02-18T05:41:48.567Z,12.20
2019-02-18T05:42:48.535Z,12.20
2019-02-18T05:43:48.511Z,12.50
2019-02-18T05:44:48.472Z,12.40
2019-02-18T05:45:48.484Z,13.40
2019-02-18T05:46:48.420Z,12.30
2019-02-18T05:47:48.388Z,18.00
2019-02-18T05:48:48.350Z,13.20
2019-02-18T05:49:48.337Z,14.20
2019-02-18T05:50:48.353Z,13.50
2019-02-18T05:51:48.264Z,13.20
2019-02-18T05:52:48.254Z,12.40
2019-02-18T05:53:48.205Z,12.50
2019-02-18T05:54:48.182Z,12.00
2019-02-18T05:55:48.153Z,12.80
2019-02-18T05:56:48.120Z,12.60
2019-02-18T05:57:48.084Z,12.60
2019-02-18T05:58:48.099Z,12.00
2019-02-18T05:59:48.029Z,12.30
2019-02-18T06:00:48.113Z,12.60
2019-02-18T06:01:47.964Z,12.40
2019-02-18T06:02:48.017Z,12.20
2019-02-18T06:03:47.904Z,11.80
2019-02-18T06:05:47.850Z,12.20
2019-02-18T06:06:47.887Z,11.80
2019-02-18T06:07:47.786Z,12.40
2019-02-18T06:09:47.726Z,12.60
2019-02-18T06:10:55.393Z,13.70
2019-02-18T06:11:47.740Z,12.70
2019-02-18T06:13:47.626Z,12.70
2019-02-18T06:14:47.573Z,13.00
2019-02-18T06:15:47.556Z,13.30
2019-02-18T06:17:47.486Z,11.90
2019-02-18T06:18:47.563Z,12.30
2019-02-18T06:19:47.425Z,12.20
2019-02-18T06:20:48.520Z,13.70
2019-02-18T06:21:47.375Z,14.90
2019-02-18T06:22:54.348Z,14.30
2019-02-18T06:23:47.608Z,13.50
2019-02-18T06:24:49.341Z,13.00
2019-02-18T06:25:47.251Z,12.40
2019-02-18T06:27:02.871Z,12.40
2019-02-18T06:27:47.197Z,12.70
2019-02-18T06:28:53.878Z,12.80
2019-02-18T06:29:47.128Z,12.60
2019-02-18T06:30:48.156Z,12.80
2019-02-18T06:31:47.068Z,12.90
2019-02-18T06:33:01.893Z,13.20
2019-02-18T06:33:47.009Z,12.20
2019-02-18T06:34:49.048Z,12.90
2019-02-18T06:35:46.945Z,13.40
2019-02-18T06:37:03.867Z,13.40
2019-02-18T06:37:46.885Z,13.70
2019-02-18T06:39:14.836Z,14.10
2019-02-18T06:39:46.829Z,14.50
2019-02-18T06:40:46.799Z,14.10
2019-02-18T06:41:47.789Z,14.40
2019-02-18T06:42:46.758Z,13.90
2019-02-18T06:43:48.722Z,14.10
2019-02-18T06:44:46.676Z,14.10
2019-02-18T06:45:48.807Z,14.30
2019-02-18T06:46:46.622Z,14.50
2019-02-18T06:47:46.647Z,14.30
2019-02-18T06:48:46.562Z,13.50
2019-02-18T06:49:46.558Z,14.30
2019-02-18T06:50:46.493Z,13.40
2019-02-18T06:51:48.510Z,14.10
2019-02-18T06:52:46.439Z,15.00
2019-02-18T06:53:46.475Z,13.50
2019-02-18T06:54:46.379Z,13.10
2019-02-18T06:55:47.409Z,13.30
2019-02-18T06:56:46.318Z,14.90
2019-02-18T06:57:46.399Z,13.90
2019-02-18T06:58:46.262Z,15.50
2019-02-18T06:59:46.316Z,14.20
2019-02-18T07:00:46.221Z,14.80
2019-02-18T07:01:46.223Z,17.00
2019-02-18T07:02:46.132Z,14.90
2019-02-18T07:03:46.105Z,14.40
2019-02-18T07:04:46.082Z,13.40
2019-02-18T07:05:46.056Z,13.60
2019-02-18T07:06:46.022Z,12.80
2019-02-18T07:07:45.986Z,14.00
2019-02-18T07:08:46.788Z,13.60
2019-02-18T07:09:51.331Z,13.50
2019-02-18T07:10:45.985Z,14.00
2019-02-18T07:11:45.864Z,12.90
2019-02-18T07:12:45.834Z,12.30
2019-02-18T07:13:45.801Z,13.30
2019-02-18T07:14:45.783Z,13.70
2019-02-18T07:15:45.756Z,13.30
2019-02-18T07:16:45.809Z,14.00
2019-02-18T07:17:45.828Z,13.40
2019-02-18T07:18:45.653Z,14.10
2019-02-18T07:19:45.628Z,13.10
2019-02-18T07:20:45.602Z,13.20
2019-02-18T07:21:46.578Z,13.60
2019-02-18T07:22:45.530Z,12.90
2019-02-18T07:23:45.504Z,13.40
2019-02-18T07:24:46.488Z,13.20
2019-02-18T07:25:45.450Z,12.50
2019-02-18T07:26:45.485Z,13.10
2019-02-18T07:27:45.386Z,12.70
2019-02-18T07:28:45.407Z,12.60
2019-02-18T07:29:45.322Z,12.90
2019-02-18T07:30:45.314Z,12.80
2019-02-18T07:31:45.262Z,12.70
2019-02-18T07:32:46.333Z,12.70
2019-02-18T07:33:45.209Z,12.00
2019-02-18T07:34:45.260Z,11.90
2019-02-18T07:35:45.143Z,12.10
2019-02-18T07:36:45.140Z,12.00
2019-02-18T07:37:45.119Z,11.60
2019-02-18T07:38:46.062Z,12.60
2019-02-18T07:39:45.024Z,12.50
2019-02-18T07:40:44.986Z,12.40
2019-02-18T07:41:44.969Z,13.50
2019-02-18T07:42:44.973Z,13.20
2019-02-18T07:43:44.897Z,12.90
2019-02-18T07:44:44.879Z,12.20
2019-02-18T07:45:44.882Z,13.10
2019-02-18T07:46:44.900Z,12.60
2019-02-18T07:47:44.793Z,12.00
2019-02-18T07:48:44.812Z,12.20
2019-02-18T07:49:44.717Z,12.70
2019-02-18T07:50:44.702Z,12.00
2019-02-18T07:51:44.656Z,12.20
2019-02-18T07:52:44.633Z,12.90
2019-02-18T07:53:44.628Z,12.00
2019-02-18T07:54:44.566Z,11.60
2019-02-18T07:55:44.535Z,11.70
2019-02-18T07:56:44.505Z,12.20
2019-02-18T07:57:44.753Z,11.50
2019-02-18T07:58:44.450Z,12.30
2019-02-18T07:59:44.504Z,12.80
2019-02-18T08:00:44.383Z,12.40
2019-02-18T08:01:45.408Z,12.30
2019-02-18T08:02:44.350Z,11.90
2019-02-18T08:03:44.300Z,12.60
2019-02-18T08:04:44.317Z,12.20
2019-02-18T08:05:44.249Z,13.00
2019-02-18T08:06:44.312Z,12.30
2019-02-18T08:07:44.231Z,11.10
2019-02-18T08:08:44.218Z,12.30
2019-02-18T08:09:44.111Z,12.00
2019-02-18T08:10:44.119Z,12.90
2019-02-18T08:11:44.051Z,12.70
2019-02-18T08:12:44.030Z,12.70
2019-02-18T08:13:44.004Z,12.00
2019-02-18T08:14:43.970Z,12.00
2019-02-18T08:15:43.931Z,11.90
2019-02-18T08:16:43.907Z,11.40
2019-02-18T08:17:44.165Z,11.50
2019-02-18T08:18:43.879Z,11.40
2019-02-18T08:19:43.810Z,12.30
2019-02-18T08:20:43.784Z,11.70
2019-02-18T08:21:43.754Z,11.90
2019-02-18T08:22:43.719Z,12.10
2019-02-18T08:23:43.712Z,11.60
2019-02-18T08:24:43.675Z,12.20
2019-02-18T08:25:43.635Z,11.90
2019-02-18T08:26:44.262Z,11.70
2019-02-18T08:27:43.580Z,12.00
2019-02-18T08:28:43.538Z,12.00
2019-02-18T08:29:43.511Z,11.60
2019-02-18T08:30:43.482Z,11.40
2019-02-18T08:31:43.451Z,10.80
2019-02-18T08:32:43.425Z,10.80
2019-02-18T08:33:43.398Z,11.50
2019-02-18T08:34:43.367Z,11.70
2019-02-18T08:35:43.332Z,10.50
2019-02-18T08:36:43.301Z,10.60
2019-02-18T08:37:43.268Z,10.80
2019-02-18T08:38:43.241Z,10.20
2019-02-18T08:39:43.214Z,10.60
2019-02-18T08:40:43.211Z,11.00
2019-02-18T08:41:43.150Z,10.10
2019-02-18T08:42:43.231Z,10.50
2019-02-18T08:43:43.095Z,9.90
2019-02-18T08:44:43.151Z,11.20
2019-02-18T08:45:43.044Z,10.10
2019-02-18T08:46:43.050Z,11.00
2019-02-18T08:47:42.968Z,10.60
2019-02-18T08:48:42.965Z,9.30
2019-02-18T08:49:42.926Z,10.10
2019-02-18T08:50:42.870Z,10.10
2019-02-18T08:51:42.857Z,10.30
2019-02-18T08:52:42.821Z,10.40
2019-02-18T08:53:42.785Z,10.10
2019-02-18T08:54:42.761Z,10.20
2019-02-18T08:55:42.722Z,10.40
2019-02-18T08:56:42.704Z,10.20
2019-02-18T08:57:42.675Z,10.20
2019-02-18T08:58:42.636Z,10.00
2019-02-18T08:59:42.603Z,11.70
2019-02-18T09:00:42.574Z,10.70
2019-02-18T09:01:42.548Z,10.70
2019-02-18T09:02:42.543Z,10.30
2019-02-18T09:03:44.318Z,10.60
2019-02-18T09:04:42.455Z,9.90
2019-02-18T09:05:42.440Z,10.80
2019-02-18T09:06:42.399Z,10.20
2019-02-18T09:07:42.381Z,9.40
2019-02-18T09:08:42.345Z,10.20
2019-02-18T09:09:42.332Z,9.30
2019-02-18T09:10:42.278Z,9.20
2019-02-18T09:11:42.262Z,9.60
2019-02-18T09:12:42.236Z,9.80
2019-02-18T09:13:42.183Z,9.60
2019-02-18T09:14:42.156Z,9.40
2019-02-18T09:15:42.120Z,9.50
2019-02-18T09:16:42.108Z,10.00
2019-02-18T09:17:42.074Z,8.80
2019-02-18T09:18:42.044Z,9.50
2019-02-18T09:19:42.016Z,9.90
2019-02-18T09:20:42.003Z,9.30
2019-02-18T09:21:41.973Z,9.60
2019-02-18T09:22:41.984Z,8.90
2019-02-18T09:23:41.915Z,9.20
2019-02-18T09:24:41.931Z,9.10
2019-02-18T09:25:43.493Z,9.20
2019-02-18T09:26:41.962Z,9.60
2019-02-18T09:27:41.793Z,9.00
2019-02-18T09:28:41.745Z,9.20
2019-02-18T09:29:41.725Z,8.70
2019-02-18T09:30:41.682Z,9.20
2019-02-18T09:31:42.931Z,8.70
2019-02-18T09:32:41.624Z,8.80
2019-02-18T09:33:41.607Z,9.00
2019-02-18T09:34:41.565Z,9.00
2019-02-18T09:35:41.556Z,8.60
2019-02-18T09:36:41.499Z,8.50
2019-02-18T09:37:41.501Z,8.10
2019-02-18T09:38:41.438Z,7.90
2019-02-18T09:39:41.412Z,8.00
2019-02-18T09:40:44.596Z,8.40
2019-02-18T09:41:41.357Z,7.80
2019-02-18T09:42:41.352Z,8.80
2019-02-18T09:43:41.284Z,7.40
2019-02-18T09:44:41.290Z,7.40
2019-02-18T09:45:41.244Z,7.90
2019-02-18T09:46:41.203Z,8.00
2019-02-18T09:47:41.233Z,7.90
2019-02-18T09:48:41.147Z,8.20
2019-02-18T09:49:41.134Z,8.40
2019-02-18T09:50:41.104Z,7.60
2019-02-18T09:51:41.055Z,8.40
2019-02-18T09:52:41.050Z,7.90
2019-02-18T09:53:40.990Z,8.30
2019-02-18T09:54:40.973Z,7.80
2019-02-18T09:55:40.936Z,7.70
2019-02-18T09:56:40.996Z,7.20
2019-02-18T09:57:40.931Z,7.50
2019-02-18T09:58:40.914Z,7.70
2019-02-18T09:59:40.819Z,7.40
2019-02-18T10:00:40.791Z,7.30
2019-02-18T10:01:43.157Z,7.80
2019-02-18T10:02:40.762Z,7.30
2019-02-18T10:03:40.711Z,7.40
2019-02-18T10:04:40.674Z,7.60
2019-02-18T10:05:40.682Z,7.40
2019-02-18T10:06:40.694Z,7.30
2019-02-18T10:07:40.627Z,7.30
2019-02-18T10:08:40.732Z,7.00
2019-02-18T10:09:40.546Z,8.00
2019-02-18T10:10:40.609Z,7.70
2019-02-18T10:11:40.477Z,7.30
2019-02-18T10:12:40.503Z,7.90
2019-02-18T10:13:40.445Z,7.90
2019-02-18T10:14:40.408Z,8.30
2019-02-18T10:15:40.398Z,7.70
2019-02-18T10:16:40.362Z,8.00
2019-02-18T10:17:40.310Z,8.30
2019-02-18T10:18:40.272Z,8.30
2019-02-18T10:19:42.774Z,7.90
2019-02-18T10:20:40.269Z,8.20
2019-02-18T10:21:40.208Z,8.10
2019-02-18T10:22:40.293Z,7.50
2019-02-18T10:23:40.167Z,7.90
2019-02-18T10:24:50.564Z,7.60
2019-02-18T10:25:40.053Z,8.10
2019-02-18T10:26:40.078Z,7.90
2019-02-18T10:27:40.003Z,7.40
2019-02-18T10:28:39.984Z,8.20
2019-02-18T10:29:39.939Z,8.40
2019-02-18T10:30:39.920Z,8.50
2019-02-18T10:31:39.903Z,8.10
2019-02-18T10:32:39.882Z,7.90
2019-02-18T10:33:39.818Z,7.80
2019-02-18T10:34:39.794Z,8.50
2019-02-18T10:35:39.785Z,8.00
2019-02-18T10:36:39.733Z,8.40
2019-02-18T10:37:39.708Z,8.40
2019-02-18T10:38:40.294Z,8.20
2019-02-18T10:39:39.642Z,8.60
2019-02-18T10:40:39.616Z,7.70
2019-02-18T10:41:39.595Z,8.30
2019-02-18T10:42:39.565Z,7.60
2019-02-18T10:43:39.528Z,7.60
2019-02-18T10:44:39.494Z,8.00
2019-02-18T10:45:39.489Z,8.20
2019-02-18T10:46:40.679Z,7.40
2019-02-18T10:47:39.460Z,8.00
2019-02-18T10:48:39.396Z,8.00
2019-02-18T10:49:39.360Z,7.70
2019-02-18T10:50:39.325Z,8.60
2019-02-18T10:51:39.297Z,7.30
2019-02-18T10:52:39.282Z,7.80
2019-02-18T10:53:39.243Z,8.20
2019-02-18T10:54:53.878Z,7.60
2019-02-18T10:55:39.197Z,8.50
2019-02-18T10:57:14.887Z,7.60
2019-02-18T10:57:39.138Z,7.50
2019-02-18T11:33:14.584Z,7.20
2019-02-18T11:33:49.933Z,7.80
2019-02-18T11:38:31.004Z,7.80
2019-02-18T11:38:51.786Z,7.90
2019-02-18T11:40:08.516Z,7.70
2019-02-18T11:40:51.735Z,7.70
2019-02-18T11:41:51.735Z,7.60
2019-02-18T11:42:51.678Z,7.40
2019-02-18T11:44:07.522Z,7.70
2019-02-18T11:44:51.639Z,7.90
2019-02-18T11:45:58.535Z,7.70
2019-02-18T11:46:51.566Z,8.30
2019-02-18T11:47:53.624Z,8.10
2019-02-18T11:48:51.501Z,7.50
2019-02-18T11:49:51.590Z,7.80
2019-02-18T11:50:51.489Z,7.90
2019-02-18T11:51:52.534Z,7.70
2019-02-18T11:52:51.404Z,7.40
2019-02-18T11:53:52.432Z,8.00
2019-02-18T11:54:51.333Z,7.70
2019-02-18T11:55:51.406Z,7.80
2019-02-18T11:56:51.277Z,7.30
2019-02-18T11:57:58.101Z,7.70
2019-02-18T11:58:51.226Z,7.20
2019-02-18T11:59:52.253Z,7.80
2019-02-18T12:00:51.167Z,8.20
2019-02-18T12:01:51.145Z,8.10
2019-02-18T12:02:51.110Z,7.60
2019-02-18T12:03:51.077Z,7.60
2019-02-18T12:04:51.050Z,7.60
2019-02-18T12:05:51.056Z,7.70
2019-02-18T12:06:50.995Z,8.00
2019-02-18T12:07:51.071Z,7.40
2019-02-18T12:08:50.946Z,7.70
2019-02-18T12:09:50.916Z,7.70
2019-02-18T12:10:51.013Z,7.80
2019-02-18T12:11:50.852Z,7.50
2019-02-18T12:12:50.894Z,7.40
2019-02-18T12:13:50.803Z,7.50
2019-02-18T12:14:50.828Z,7.00
2019-02-18T12:15:50.745Z,7.60
2019-02-18T12:16:50.820Z,7.60
2019-02-18T12:17:50.686Z,7.60
2019-02-18T12:18:50.736Z,7.30
2019-02-18T12:19:50.652Z,7.50
2019-02-18T12:20:50.603Z,7.50
2019-02-18T12:21:50.580Z,8.00
2019-02-18T12:22:50.571Z,8.00
2019-02-18T12:23:50.565Z,7.30
2019-02-18T12:24:50.515Z,8.00
2019-02-18T12:25:50.884Z,7.30
2019-02-18T12:26:50.752Z,7.60
2019-02-18T12:27:50.415Z,7.30
2019-02-18T12:28:50.423Z,7.20
2019-02-18T12:29:50.356Z,8.10
2019-02-18T12:30:50.328Z,8.00
2019-02-18T12:31:50.303Z,7.70
2019-02-18T12:32:50.283Z,7.80
2019-02-18T12:33:52.014Z,7.40
2019-02-18T12:34:50.221Z,7.50
2019-02-18T12:35:50.201Z,7.40
2019-02-18T12:36:50.164Z,8.60
2019-02-18T12:37:55.381Z,8.00
2019-02-18T12:38:50.098Z,7.80
2019-02-18T12:39:50.154Z,7.80
2019-02-18T12:40:50.048Z,7.50
2019-02-18T12:41:50.018Z,8.70
2019-02-18T12:42:50.010Z,7.90
2019-02-18T12:43:49.963Z,7.50
2019-02-18T12:44:49.945Z,7.80
2019-02-18T12:45:49.911Z,8.40
2019-02-18T12:46:49.890Z,7.80
2019-02-18T12:47:49.874Z,7.60
2019-02-18T12:48:49.831Z,8.20
2019-02-18T12:49:51.055Z,7.70
2019-02-18T12:50:49.788Z,7.80
2019-02-18T12:51:49.744Z,7.60
2019-02-18T12:52:49.717Z,7.40
2019-02-18T12:53:49.703Z,8.00
2019-02-18T12:54:49.754Z,7.60
2019-02-18T12:55:49.640Z,7.10
2019-02-18T12:56:49.608Z,7.00
2019-02-18T12:57:49.588Z,7.40
2019-02-18T12:58:54.571Z,8.00
2019-02-18T12:59:49.578Z,7.20
2019-02-18T13:00:49.499Z,7.40
2019-02-18T13:01:49.482Z,7.30
2019-02-18T13:02:49.449Z,7.40
2019-02-18T13:03:49.431Z,7.20
2019-02-18T13:04:49.404Z,7.10
2019-02-18T13:05:49.398Z,7.60
2019-02-18T13:06:49.343Z,7.00
2019-02-18T13:07:49.357Z,7.00
2019-02-18T13:08:49.294Z,7.00
2019-02-18T13:09:49.246Z,7.10
2019-02-18T13:10:49.228Z,6.90
2019-02-18T13:11:58.553Z,7.10
2019-02-18T13:12:49.162Z,6.80
2019-02-18T13:13:49.137Z,8.10
2019-02-18T13:14:49.119Z,7.50
2019-02-18T13:15:49.152Z,7.20
2019-02-18T13:16:49.076Z,7.00
2019-02-18T13:17:49.030Z,6.40
2019-02-18T13:18:49.015Z,6.20
2019-02-18T13:19:48.979Z,6.80
2019-02-18T13:20:48.947Z,7.00
2019-02-18T13:21:48.918Z,6.80
2019-02-18T13:22:48.906Z,7.10
2019-02-18T13:23:48.867Z,6.40
2019-02-18T13:24:48.851Z,7.10
2019-02-18T13:25:48.836Z,6.60
2019-02-18T13:26:48.789Z,7.00
2019-02-18T13:27:48.772Z,6.90
2019-02-18T13:28:48.741Z,7.60
2019-02-18T13:29:48.706Z,6.50
2019-02-18T13:30:48.684Z,7.10
2019-02-18T13:31:48.649Z,7.50
2019-02-18T13:32:48.637Z,7.60
2019-02-18T13:33:48.601Z,7.20
2019-02-18T13:34:48.590Z,7.10
2019-02-18T13:35:48.840Z,6.80
2019-02-18T13:36:48.519Z,7.30
2019-02-18T13:37:48.494Z,6.50
2019-02-18T13:38:48.514Z,7.10
2019-02-18T13:39:48.442Z,6.60
2019-02-18T13:40:48.416Z,6.60
2019-02-18T13:41:48.385Z,7.00
2019-02-18T13:42:48.356Z,6.90
2019-02-18T13:43:48.325Z,6.90
2019-02-18T13:44:48.294Z,7.20
2019-02-18T13:45:48.283Z,7.30
2019-02-18T13:46:48.243Z,7.20
2019-02-18T13:47:48.274Z,7.50